Time;durP1;ratioP1;P1;durP2;ratioP2;P2;SDS_P1;SDS_P2;PMS_P1;PMS_P2;Temp;Humidity;BMP_temperature;BMP_pressure;BME280_temperature;BME280_humidity;BME280_pressure;Samples;Min_cycle;Max_cycle;Signal;HPM_P1;HPM_P2
2021/07/10 00:05:43;;;;;;;;;;;;;;;19.25;81.51;99504.93;531768;1088;101919;-60
2021/07/10 00:15:48;;;;;;;;;;;;;;;19.09;81.37;99505.66;518638;1089;102163;-60
2021/07/10 00:25:54;;;;;;;;;;;;;;;18.97;81.39;99511.20;532664;1089;102121;-60
2021/07/10 00:35:59;;;;;;;;;;;;;;;18.94;81.58;99503.53;532054;1088;101547;-66
2021/07/10 00:46:03;;;;;;;;;;;;;;;18.82;81.44;99491.48;531825;1089;102255;-61
2021/07/10 00:56:09;;;;;;;;;;;;;;;18.63;81.40;99494.16;532917;1090;103230;-60
2021/07/10 01:06:14;;;;;;;;;;;;;;;18.70;81.79;99498.84;532210;1087;103091;-60
2021/07/10 01:16:19;;;;;;;;;;;;;;;18.66;81.09;99514.30;532942;1088;102445;-60
2021/07/10 01:26:24;;;;;;;;;;;;;;;18.51;81.19;99526.44;532816;1089;103362;-60
2021/07/10 01:36:30;;;;;;;;;;;;;;;18.60;81.11;99541.48;532265;1089;102438;-60
2021/07/10 01:46:35;;;;;;;;;;;;;;;18.69;80.57;99553.88;532875;1088;103230;-60
2021/07/10 01:56:40;;;;;;;;;;;;;;;18.30;79.86;99573.59;532860;1089;102540;-60
2021/07/10 02:06:45;;;;;;;;;;;;;;;17.85;79.55;99588.47;532279;1089;101936;-61
2021/07/10 02:16:50;;;;;;;;;;;;;;;17.84;79.87;99600.08;532901;1089;102338;-61
2021/07/10 02:26:55;;;;;;;;;;;;;;;17.59;79.58;99597.05;532246;1088;101847;-61
2021/07/10 02:36:59;;;;;;;;;;;;;;;17.62;79.93;99599.45;532879;1089;103523;-61
2021/07/10 02:47:05;;;;;;;;;;;;;;;17.56;80.03;99580.61;532877;1089;102185;-61
2021/07/10 02:57:10;;;;;;;;;;;;;;;17.39;79.31;99606.06;532225;1088;103281;-61
2021/07/10 03:07:15;;;;;;;;;;;;;;;16.91;78.44;99609.41;532913;1089;102711;-61
2021/07/10 03:17:20;;;;;;;;;;;;;;;16.75;77.98;99620.55;532873;1089;102084;-61
2021/07/10 03:27:25;;;;;;;;;;;;;;;16.72;77.76;99633.23;532041;1089;103293;-61
2021/07/10 03:37:29;;;;;;;;;;;;;;;16.60;77.60;99636.02;531497;1089;102453;-62
2021/07/10 03:47:34;;;;;;;;;;;;;;;16.52;77.58;99635.88;532912;1089;102013;-61
2021/07/10 03:57:39;;;;;;;;;;;;;;;16.55;77.38;99640.05;532275;1089;102869;-61
2021/07/10 04:07:44;;;;;;;;;;;;;;;16.61;76.82;99634.21;532928;1089;102973;-61
2021/07/10 04:17:49;;;;;;;;;;;;;;;16.63;76.64;99643.71;532266;1088;103402;-60
2021/07/10 04:27:54;;;;;;;;;;;;;;;16.61;76.41;99636.86;532962;1090;102244;-61
2021/07/10 04:37:59;;;;;;;;;;;;;;;16.93;76.31;99641.09;532903;1090;103793;-61
2021/07/10 04:48:04;;;;;;;;;;;;;;;17.61;75.15;99650.02;532191;1089;102145;-60
2021/07/10 04:58:09;;;;;;;;;;;;;;;18.76;73.33;99664.00;532882;1090;103331;-60
2021/07/10 05:08:14;;;;;;;;;;;;;;;19.39;72.03;99664.11;533010;1089;101438;-60
2021/07/10 05:18:20;;;;;;;;;;;;;;;23.29;68.06;99663.42;532237;1089;103230;-62
2021/07/10 05:28:25;;;;;;;;;;;;;;;28.14;62.01;99663.40;532939;1089;101765;-61
2021/07/10 05:38:29;;;;;;;;;;;;;;;33.95;51.87;99649.97;532982;1088;101900;-60
2021/07/10 05:48:34;;;;;;;;;;;;;;;35.73;46.69;99650.58;532263;1089;103783;-63
2021/07/10 05:58:39;;;;;;;;;;;;;;;35.82;44.06;99651.73;532912;1089;101518;-63
2021/07/10 06:08:44;;;;;;;;;;;;;;;42.35;37.77;99653.80;532917;1088;102182;-62
2021/07/10 06:18:49;;;;;;;;;;;;;;;41.86;32.29;99670.81;532895;1089;102473;-61
2021/07/10 06:28:54;;;;;;;;;;;;;;;36.05;33.40;99671.53;532910;1088;104010;-61
2021/07/10 06:38:59;;;;;;;;;;;;;;;41.06;32.10;99678.32;532275;1089;101802;-62
2021/07/10 06:49:04;;;;;;;;;;;;;;;37.25;30.47;99694.52;532888;1088;101632;-62
2021/07/10 06:59:11;;;;;;;;;;;;;;;30.81;34.75;99692.30;532918;1088;102545;-61
2021/07/10 07:09:16;;;;;;;;;;;;;;;27.43;38.09;99688.17;532090;1089;102680;-61
2021/07/10 07:19:20;;;;;;;;;;;;;;;23.95;42.41;99697.63;527868;1090;103084;-59
2021/07/10 07:29:25;;;;;;;;;;;;;;;22.16;45.99;99717.95;532897;1090;101916;-60
2021/07/10 07:39:30;;;;;;;;;;;;;;;20.92;48.91;99724.11;532162;1089;102802;-61
2021/07/10 07:49:35;;;;;;;;;;;;;;;20.46;51.24;99728.91;532806;1088;102167;-59
2021/07/10 07:59:40;;;;;;;;;;;;;;;19.60;52.67;99741.00;532900;1087;101525;-59
2021/07/10 08:09:45;;;;;;;;;;;;;;;19.34;54.32;99743.59;532238;1088;103766;-59
2021/07/10 08:19:50;;;;;;;;;;;;;;;19.41;55.66;99743.81;532822;1087;104086;-60
2021/07/10 08:29:55;;;;;;;;;;;;;;;20.42;54.15;99752.39;532136;1088;102574;-60
2021/07/10 08:40:00;;;;;;;;;;;;;;;20.39;54.30;99750.05;532816;1088;101954;-60
2021/07/10 08:50:06;;;;;;;;;;;;;;;19.91;55.36;99758.38;532936;1087;103586;-60
2021/07/10 09:00:14;;;;;;;;;;;;;;;19.95;56.87;99751.77;532245;1088;103792;-59
2021/07/10 09:10:34;;;;;;;;;;;;;;;20.92;55.71;99766.80;532781;1089;104169;-67
2021/07/10 09:20:40;;;;;;;;;;;;;;;21.37;55.21;99772.77;532852;1088;101844;-65
2021/07/10 09:30:45;;;;;;;;;;;;;;;20.49;55.75;99793.44;514177;1089;10001183;-69
2021/07/10 09:41:04;;;;;;;;;;;;;;;21.14;56.24;99797.42;532800;1089;102888;-69
2021/07/10 09:51:18;;;;;;;;;;;;;;;21.26;55.14;99805.13;532028;1089;102478;-68
2021/07/10 10:01:31;;;;;;;;;;;;;;;20.33;56.16;99817.35;532760;1089;103374;-69
2021/07/10 10:11:53;;;;;;;;;;;;;;;20.34;56.48;99819.02;532803;1088;102388;-68
2021/07/10 10:21:59;;;;;;;;;;;;;;;20.64;56.99;99812.36;532722;1088;104490;-62
2021/07/10 10:32:06;;;;;;;;;;;;;;;22.02;55.81;99823.78;532765;1088;101733;-66
2021/07/10 10:42:18;;;;;;;;;;;;;;;23.16;53.99;99817.48;532130;1089;103406;-67
2021/07/10 10:52:26;;;;;;;;;;;;;;;23.42;52.64;99835.11;532831;1088;102623;-68
2021/07/10 11:02:43;;;;;;;;;;;;;;;23.53;52.10;99823.14;532845;1089;101668;-67
2021/07/10 11:12:53;;;;;;;;;;;;;;;22.90;52.64;99844.53;532804;1089;102922;-70
2021/07/10 11:23:02;;;;;;;;;;;;;;;22.05;53.27;99841.33;532846;1088;102210;-70
2021/07/10 11:33:07;;;;;;;;;;;;;;;21.67;54.46;99845.30;517426;1088;102053;-68
2021/07/10 11:43:12;;;;;;;;;;;;;;;21.37;54.91;99846.70;531719;1087;104532;-69
2021/07/10 11:53:17;;;;;;;;;;;;;;;21.63;54.82;99853.77;532767;1089;102106;-69
2021/07/10 12:03:23;;;;;;;;;;;;;;;22.14;54.59;99858.20;532142;1089;102390;-70
2021/07/10 12:13:34;;;;;;;;;;;;;;;22.87;54.41;99848.38;532844;1088;102653;-69
2021/07/10 12:23:40;;;;;;;;;;;;;;;24.09;51.92;99837.35;518206;1089;103339;-66
2021/07/10 12:33:47;;;;;;;;;;;;;;;24.73;50.32;99839.55;526755;1089;102326;-66
2021/07/10 12:43:54;;;;;;;;;;;;;;;25.17;49.66;99832.48;532912;1089;102729;-66
2021/07/10 12:54:01;;;;;;;;;;;;;;;25.49;49.34;99824.17;532281;1090;102074;-66
2021/07/10 13:04:06;;;;;;;;;;;;;;;25.80;47.65;99814.13;532897;1088;103173;-66
2021/07/10 13:14:18;;;;;;;;;;;;;;;25.68;47.54;99817.33;531489;1089;103199;-67
2021/07/10 13:24:23;;;;;;;;;;;;;;;25.51;47.83;99808.72;532245;1089;101936;-67
2021/07/10 13:34:28;;;;;;;;;;;;;;;25.61;47.77;99813.77;532918;1089;102160;-66
2021/07/10 13:44:34;;;;;;;;;;;;;;;25.68;47.54;99803.07;532894;1089;103045;-66
2021/07/10 13:54:40;;;;;;;;;;;;;;;25.41;47.34;99792.85;532285;1088;102088;-67
2021/07/10 14:04:45;;;;;;;;;;;;;;;25.26;47.54;99797.45;532945;1090;101933;-66
2021/07/10 14:14:49;;;;;;;;;;;;;;;24.81;48.13;99781.42;532314;1089;102631;-66
2021/07/10 14:24:54;;;;;;;;;;;;;;;24.86;48.33;99787.08;532870;1087;103028;-67
2021/07/10 14:34:59;;;;;;;;;;;;;;;25.00;47.42;99777.33;532893;1088;102049;-66
2021/07/10 14:45:04;;;;;;;;;;;;;;;24.45;48.08;99783.00;532278;1087;103338;-66
2021/07/10 14:55:10;;;;;;;;;;;;;;;24.22;48.08;99775.86;532907;1089;102733;-66
2021/07/10 15:05:15;;;;;;;;;;;;;;;24.24;48.22;99760.41;532106;1088;103047;-66
2021/07/10 15:15:20;;;;;;;;;;;;;;;24.34;47.88;99749.39;532344;1088;102392;-66
2021/07/10 15:25:26;;;;;;;;;;;;;;;23.82;48.46;99740.33;518592;1088;103151;-66
2021/07/10 15:46:14;;;;;;;;;;;;;;;23.19;49.18;99714.50;532913;1087;102138;-66
2021/07/10 15:56:19;;;;;;;;;;;;;;;22.96;49.15;99715.31;530017;1089;103429;-66
2021/07/10 16:06:24;;;;;;;;;;;;;;;22.99;50.40;99719.49;532295;1089;102943;-67
2021/07/10 16:16:30;;;;;;;;;;;;;;;23.00;49.34;99711.30;532924;1088;102056;-67
2021/07/10 16:26:36;;;;;;;;;;;;;;;23.03;49.31;99713.61;532933;1089;101975;-67
2021/07/10 16:36:41;;;;;;;;;;;;;;;23.05;50.03;99708.91;532302;1087;102581;-66
2021/07/10 16:46:45;;;;;;;;;;;;;;;22.87;50.26;99713.72;533007;1088;102496;-67
2021/07/10 16:56:50;;;;;;;;;;;;;;;22.99;50.31;99708.78;532314;1090;102398;-66
2021/07/10 17:06:55;;;;;;;;;;;;;;;22.88;50.98;99723.41;532967;1087;103204;-67
2021/07/10 17:17:00;;;;;;;;;;;;;;;22.66;50.48;99720.51;532882;1089;102177;-66
2021/07/10 17:27:05;;;;;;;;;;;;;;;22.45;50.99;99729.07;532288;1088;101650;-67
2021/07/10 17:37:10;;;;;;;;;;;;;;;22.33;51.28;99725.95;520896;1089;101819;-66
2021/07/10 17:47:15;;;;;;;;;;;;;;;22.11;52.34;99728.34;524424;1088;102417;-66
2021/07/10 17:57:20;;;;;;;;;;;;;;;21.84;53.50;99735.75;532242;1088;102262;-67
2021/07/10 18:07:25;;;;;;;;;;;;;;;21.68;53.66;99740.08;532829;1088;101882;-67
2021/07/10 18:17:29;;;;;;;;;;;;;;;21.30;55.14;99744.20;532921;1087;102050;-67
2021/07/10 18:27:34;;;;;;;;;;;;;;;20.88;56.02;99745.94;532278;1089;102295;-67
2021/07/10 18:37:40;;;;;;;;;;;;;;;20.49;56.23;99758.77;532960;1088;102886;-67
2021/07/10 18:47:50;;;;;;;;;;;;;;;20.04;58.27;99760.68;532327;1089;101846;-66
2021/07/10 18:57:55;;;;;;;;;;;;;;;19.64;59.50;99762.84;532985;1089;101303;-66
2021/07/10 19:07:59;;;;;;;;;;;;;;;19.25;60.78;99773.77;532918;1090;102684;-67
2021/07/10 19:18:05;;;;;;;;;;;;;;;18.79;61.49;99765.75;532269;1089;102725;-66
2021/07/10 19:28:09;;;;;;;;;;;;;;;18.36;62.79;99771.51;532928;1088;103430;-67
2021/07/10 19:38:15;;;;;;;;;;;;;;;18.26;63.40;99781.33;529042;1090;101658;-66
2021/07/10 19:48:20;;;;;;;;;;;;;;;18.14;64.02;99775.36;531365;1088;102422;-66
2021/07/10 19:58:25;;;;;;;;;;;;;;;18.08;64.40;99770.59;532853;1090;102258;-66
2021/07/10 20:08:30;;;;;;;;;;;;;;;18.09;63.91;99767.81;532840;1089;102046;-67
2021/07/10 20:18:36;;;;;;;;;;;;;;;18.04;64.47;99770.04;532303;1089;102625;-66
2021/07/10 20:29:06;;;;;;;;;;;;;;;;;;;;;
2021/07/10 20:39:11;;;;;;;;;;;;;;;17.58;65.06;99781.22;532234;1087;101934;-66
2021/07/10 20:49:15;;;;;;;;;;;;;;;17.27;65.96;99772.54;529508;1089;103284;-67
2021/07/10 20:59:20;;;;;;;;;;;;;;;17.06;66.60;99776.13;532951;1088;101976;-66
2021/07/10 21:09:25;;;;;;;;;;;;;;;16.98;66.85;99782.08;532349;1089;102426;-66
2021/07/10 21:19:30;;;;;;;;;;;;;;;16.87;67.33;99790.14;532873;1089;103493;-66
2021/07/10 21:29:35;;;;;;;;;;;;;;;16.75;67.81;99789.42;532954;1088;102374;-66
2021/07/10 21:50:08;;;;;;;;;;;;;;;16.51;69.11;99782.63;523597;1088;102467;-66
2021/07/10 22:00:43;;;;;;;;;;;;;;;16.37;69.07;99784.62;532340;1088;102470;-66
2021/07/10 22:10:48;;;;;;;;;;;;;;;16.26;69.25;99774.09;532947;1090;102247;-65
2021/07/10 22:20:53;;;;;;;;;;;;;;;16.13;69.68;99770.81;532279;1088;102126;-65
2021/07/10 22:30:58;;;;;;;;;;;;;;;15.83;70.23;99752.91;532941;1090;102151;-66
2021/07/10 22:41:03;;;;;;;;;;;;;;;15.61;70.44;99748.55;532868;1089;102535;-65
2021/07/10 22:51:08;;;;;;;;;;;;;;;15.38;71.14;99745.17;532237;1089;102324;-65
2021/07/10 23:01:13;;;;;;;;;;;;;;;15.25;71.41;99761.19;532912;1089;102324;-66
2021/07/10 23:11:18;;;;;;;;;;;;;;;15.13;71.87;99765.69;532912;1088;102480;-66
2021/07/10 23:21:23;;;;;;;;;;;;;;;14.91;72.22;99767.40;532248;1089;102587;-66
2021/07/10 23:31:28;;;;;;;;;;;;;;;15.02;73.22;99760.42;533021;1088;102298;-65
2021/07/10 23:41:32;;;;;;;;;;;;;;;15.17;73.55;99756.52;532968;1089;102680;-66
2021/07/10 23:51:37;;;;;;;;;;;;;;;15.30;74.00;99731.72;527052;1088;102942;-65
